Time;durP1;ratioP1;P1;durP2;ratioP2;P2;SDS_P1;SDS_P2;PMS_P1;PMS_P2;Temp;Humidity;BMP_temperature;BMP_pressure;BME280_temperature;BME280_humidity;BME280_pressure;Samples;Min_cycle;Max_cycle;Signal;HPM_P1;HPM_P2
2022/02/07 00:00:36;;;;;;;58.08;2.60;;;;;;;;;;5051253;28;20670;-72
2022/02/07 00:03:17;;;;;;;58.72;2.88;;;;;;;;;;5050899;28;20321;-72
2022/02/07 00:05:51;;;;;;;58.47;3.00;;;;;;;;;;5048645;28;20210;-71
2022/02/07 00:08:27;;;;;;;59.53;2.90;;;;;;;;;;5050484;28;20296;-71
2022/02/07 00:11:00;;;;;;;59.63;3.13;;;;;;;;;;5050932;28;20222;-71
2022/02/07 00:13:32;;;;;;;57.88;2.90;;;;;;;;;;5051131;28;20226;-71
2022/02/07 00:16:01;;;;;;;57.78;3.22;;;;;;;;;;5051008;28;20210;-71
2022/02/07 00:18:36;;;;;;;57.55;2.90;;;;;;;;;;5050329;28;20208;-70
2022/02/07 00:21:10;;;;;;;57.92;2.95;;;;;;;;;;5054846;28;20287;-71
2022/02/07 00:23:41;;;;;;;57.63;2.80;;;;;;;;;;5054743;28;20264;-71
2022/02/07 00:26:13;;;;;;;57.78;2.85;;;;;;;;;;5053869;28;20307;-71
2022/02/07 00:28:44;;;;;;;58.30;2.90;;;;;;;;;;5054185;28;20630;-71
2022/02/07 00:31:13;;;;;;;58.15;2.90;;;;;;;;;;5054817;28;20241;-71
2022/02/07 00:33:44;;;;;;;57.58;2.92;;;;;;;;;;5054594;28;20222;-71
2022/02/07 00:36:17;;;;;;;58.20;2.70;;;;;;;;;;5054471;28;20202;-71
2022/02/07 00:38:53;;;;;;;57.85;2.92;;;;;;;;;;5070368;28;20673;-71
2022/02/07 00:41:31;;;;;;;58.30;3.00;;;;;;;;;;5074364;28;20204;-71
2022/02/07 00:44:10;;;;;;;58.17;2.83;;;;;;;;;;5074399;28;20657;-71
2022/02/07 00:46:46;;;;;;;57.85;2.80;;;;;;;;;;5073718;28;20217;-71
2022/02/07 00:49:16;;;;;;;58.00;2.67;;;;;;;;;;5073155;28;20232;-71
2022/02/07 00:51:47;;;;;;;57.42;2.67;;;;;;;;;;5074193;28;20225;-71
2022/02/07 00:54:24;;;;;;;58.10;2.85;;;;;;;;;;5073306;28;20221;-71
2022/02/07 00:56:54;;;;;;;57.78;2.70;;;;;;;;;;5074422;28;20209;-71
2022/02/07 00:59:26;;;;;;;57.75;2.85;;;;;;;;;;5073804;28;20283;-71
2022/02/07 01:01:56;;;;;;;57.90;2.80;;;;;;;;;;5074359;28;20209;-71
2022/02/07 01:04:25;;;;;;;57.47;2.30;;;;;;;;;;5073832;28;20231;-71
2022/02/07 01:06:54;;;;;;;57.65;3.00;;;;;;;;;;5073636;28;20210;-71
2022/02/07 01:09:36;;;;;;;57.70;2.55;;;;;;;;;;5064525;28;20757;-71
2022/02/07 01:12:14;;;;;;;57.97;2.90;;;;;;;;;;5053622;28;20225;-71
2022/02/07 01:15:00;;;;;;;59.30;2.90;;;;;;;;;;5053969;28;20225;-71
2022/02/07 01:18:23;;;;;;;58.05;2.90;;;;;;;;;;5053601;28;20210;-71
2022/02/07 01:23:38;;;;;;;57.65;3.00;;;;;;;;;;5020207;28;20222;-71
2022/02/07 01:46:31;;;;;;;58.70;2.80;;;;;;;;;;5053192;28;20204;-71
2022/02/07 01:49:22;;;;;;;57.95;2.80;;;;;;;;;;5052540;28;20217;-71
2022/02/07 01:52:07;;;;;;;57.97;2.80;;;;;;;;;;5053158;28;20222;-71
2022/02/07 01:54:41;;;;;;;57.33;2.75;;;;;;;;;;5052867;28;20309;-71
2022/02/07 01:57:18;;;;;;;58.13;2.70;;;;;;;;;;5052554;28;20241;-71
2022/02/07 01:59:52;;;;;;;63.47;2.90;;;;;;;;;;5052851;28;20671;-71
2022/02/07 02:02:21;;;;;;;57.47;2.70;;;;;;;;;;5052795;28;20698;-71
2022/02/07 02:04:51;;;;;;;58.75;2.70;;;;;;;;;;5052833;28;20736;-71
2022/02/07 02:07:26;;;;;;;58.08;2.58;;;;;;;;;;5052238;28;20704;-71
2022/02/07 02:09:57;;;;;;;58.60;2.70;;;;;;;;;;5052788;28;20593;-71
2022/02/07 02:12:29;;;;;;;58.88;2.80;;;;;;;;;;5052489;28;20611;-71
2022/02/07 02:15:19;;;;;;;59.95;2.83;;;;;;;;;;5050742;28;20266;-71
2022/02/07 02:18:20;;;;;;;57.78;2.70;;;;;;;;;;5052446;28;20206;-71
2022/02/07 02:37:49;;;;;;;61.03;3.60;;;;;;;;;;5052307;28;20665;-71
2022/02/07 02:45:56;;;;;;;58.30;2.70;;;;;;;;;;5051156;28;20217;-70
2022/02/07 02:48:27;;;;;;;62.00;3.10;;;;;;;;;;5051779;28;20268;-71
2022/02/07 02:51:06;;;;;;;58.58;3.20;;;;;;;;;;5052195;28;20233;-70
2022/02/07 02:53:42;;;;;;;59.80;3.20;;;;;;;;;;5052003;28;20593;-71
2022/02/07 02:56:17;;;;;;;59.28;3.03;;;;;;;;;;5052314;28;20205;-71
2022/02/07 02:59:00;;;;;;;58.42;3.13;;;;;;;;;;5051790;28;20260;-71
2022/02/07 03:01:37;;;;;;;58.97;3.03;;;;;;;;;;5052090;28;20229;-71
2022/02/07 03:04:09;;;;;;;58.38;3.00;;;;;;;;;;5051873;28;20718;-71
2022/02/07 03:06:39;;;;;;;58.50;3.05;;;;;;;;;;5051853;28;20209;-71
2022/02/07 03:09:14;;;;;;;59.72;3.13;;;;;;;;;;5051719;28;20208;-71
2022/02/07 03:11:53;;;;;;;58.85;3.10;;;;;;;;;;5051788;28;20287;-71
2022/02/07 03:14:36;;;;;;;60.10;2.83;;;;;;;;;;5051755;28;20284;-71
2022/02/07 03:17:09;;;;;;;58.15;2.92;;;;;;;;;;5051790;28;20205;-71
2022/02/07 03:19:38;;;;;;;60.55;3.75;;;;;;;;;;5051812;28;20276;-71
2022/02/07 03:22:10;;;;;;;62.10;3.63;;;;;;;;;;5051800;28;20214;-71
2022/02/07 03:24:43;;;;;;;60.05;3.50;;;;;;;;;;5051707;28;20262;-71
2022/02/07 03:27:18;;;;;;;58.15;3.13;;;;;;;;;;5051521;28;20214;-71
2022/02/07 03:29:53;;;;;;;58.30;3.00;;;;;;;;;;5051631;28;20212;-71
2022/02/07 03:32:34;;;;;;;59.25;3.80;;;;;;;;;;5051490;28;20225;-71
2022/02/07 03:35:06;;;;;;;59.45;3.30;;;;;;;;;;5051539;28;20237;-71
2022/02/07 03:37:36;;;;;;;57.90;3.10;;;;;;;;;;5051341;28;20224;-72
2022/02/07 03:40:05;;;;;;;57.88;2.80;;;;;;;;;;5051610;28;20221;-72
2022/02/07 03:42:39;;;;;;;58.40;3.10;;;;;;;;;;5051618;28;20207;-72
2022/02/07 03:45:09;;;;;;;58.63;3.42;;;;;;;;;;5051297;28;20212;-72
2022/02/07 03:47:58;;;;;;;57.97;3.30;;;;;;;;;;5051005;28;20248;-72
2022/02/07 03:50:39;;;;;;;57.95;3.00;;;;;;;;;;5051602;28;20242;-72
2022/02/07 03:53:09;;;;;;;58.50;3.10;;;;;;;;;;5051720;28;20267;-72
2022/02/07 03:55:47;;;;;;;58.20;3.00;;;;;;;;;;5055166;28;20213;-71
2022/02/07 03:58:21;;;;;;;58.45;3.25;;;;;;;;;;5055317;28;20748;-72
2022/02/07 04:00:52;;;;;;;58.72;3.15;;;;;;;;;;5055940;28;20260;-71
2022/02/07 04:03:25;;;;;;;58.22;3.25;;;;;;;;;;5055292;28;20626;-71
2022/02/07 04:05:57;;;;;;;58.42;3.15;;;;;;;;;;5055376;28;20293;-71
2022/02/07 04:08:32;;;;;;;59.60;3.30;;;;;;;;;;5055027;28;20589;-71
2022/02/07 04:11:09;;;;;;;58.20;3.15;;;;;;;;;;5054577;28;20326;-71
2022/02/07 04:13:56;;;;;;;57.10;2.85;;;;;;;;;;5055212;28;20222;-71
2022/02/07 04:16:27;;;;;;;59.15;3.45;;;;;;;;;;5055352;28;20213;-71
2022/02/07 04:19:05;;;;;;;58.47;3.20;;;;;;;;;;5054914;28;20221;-71
2022/02/07 04:21:36;;;;;;;58.20;2.80;;;;;;;;;;5055028;28;20328;-71
2022/02/07 04:24:19;;;;;;;57.67;3.13;;;;;;;;;;5055162;28;20246;-71
2022/02/07 04:26:49;;;;;;;58.22;3.47;;;;;;;;;;5055031;28;20210;-71
2022/02/07 04:29:22;;;;;;;61.35;3.45;;;;;;;;;;5054290;28;20202;-71
2022/02/07 04:31:55;;;;;;;58.20;3.00;;;;;;;;;;5054752;28;20261;-71
2022/02/07 04:34:25;;;;;;;58.80;3.60;;;;;;;;;;5054825;28;20226;-71
2022/02/07 04:36:57;;;;;;;59.42;3.10;;;;;;;;;;5054735;28;20285;-71
2022/02/07 04:39:31;;;;;;;58.80;3.05;;;;;;;;;;5054485;28;20206;-71
2022/02/07 04:42:11;;;;;;;60.45;3.60;;;;;;;;;;5054757;28;20289;-71
2022/02/07 04:44:50;;;;;;;59.10;3.22;;;;;;;;;;5054573;28;20316;-71
2022/02/07 04:47:41;;;;;;;59.22;3.38;;;;;;;;;;5054564;28;20582;-71
2022/02/07 04:50:26;;;;;;;59.28;3.53;;;;;;;;;;5054526;28;20211;-71
2022/02/07 04:53:12;;;;;;;59.50;3.40;;;;;;;;;;5053943;28;20226;-71
2022/02/07 04:55:46;;;;;;;60.85;3.70;;;;;;;;;;5054453;28;20648;-71
2022/02/07 04:58:36;;;;;;;61.38;3.42;;;;;;;;;;5054086;28;20213;-71
2022/02/07 05:01:25;;;;;;;58.53;3.60;;;;;;;;;;5054352;28;20679;-71
2022/02/07 05:04:03;;;;;;;58.17;3.40;;;;;;;;;;5054095;28;20237;-71
2022/02/07 05:14:50;;;;;;;58.78;3.70;;;;;;;;;;5023017;28;20245;-71
2022/02/07 05:17:25;;;;;;;58.65;3.20;;;;;;;;;;5053767;28;20585;-71
2022/02/07 05:19:55;;;;;;;60.13;3.60;;;;;;;;;;5053919;28;20624;-71
2022/02/07 05:22:29;;;;;;;60.50;3.38;;;;;;;;;;5053886;28;20198;-71
2022/02/07 05:25:14;;;;;;;58.17;2.95;;;;;;;;;;5053898;28;20261;-71
2022/02/07 05:27:46;;;;;;;57.75;3.05;;;;;;;;;;5053612;28;20214;-71
2022/02/07 05:30:18;;;;;;;60.47;3.63;;;;;;;;;;5053759;28;20213;-71
2022/02/07 05:32:49;;;;;;;63.08;3.67;;;;;;;;;;5053871;28;20233;-71
2022/02/07 05:35:19;;;;;;;60.45;3.45;;;;;;;;;;5053816;28;20206;-71
2022/02/07 05:37:48;;;;;;;61.45;3.67;;;;;;;;;;5053393;28;20206;-71
2022/02/07 05:40:29;;;;;;;59.50;3.08;;;;;;;;;;5054039;28;20217;-71
2022/02/07 05:43:01;;;;;;;60.13;3.45;;;;;;;;;;5053707;28;20202;-71
2022/02/07 05:45:33;;;;;;;58.60;3.60;;;;;;;;;;5053769;28;20206;-71
2022/02/07 05:48:16;;;;;;;62.55;4.03;;;;;;;;;;5053404;28;20206;-71
2022/02/07 05:50:46;;;;;;;58.40;3.63;;;;;;;;;;5053792;28;20709;-71
2022/02/07 05:53:25;;;;;;;60.10;4.43;;;;;;;;;;5071390;28;20244;-71
2022/02/07 05:56:00;;;;;;;64.55;5.07;;;;;;;;;;5075438;28;20213;-69
2022/02/07 05:58:29;;;;;;;63.20;4.68;;;;;;;;;;5075291;28;20212;-71
2022/02/07 06:00:59;;;;;;;58.97;3.80;;;;;;;;;;5073417;28;20206;-71
2022/02/07 06:03:36;;;;;;;61.53;4.00;;;;;;;;;;5075433;28;20274;-69
2022/02/07 06:06:06;;;;;;;62.55;4.03;;;;;;;;;;5059084;28;20208;-70
2022/02/07 06:08:35;;;;;;;58.67;3.15;;;;;;;;;;5052937;28;20220;-71
2022/02/07 06:11:06;;;;;;;60.35;3.70;;;;;;;;;;5050598;28;20679;-69
2022/02/07 06:13:40;;;;;;;60.00;3.63;;;;;;;;;;5052929;28;20321;-70
2022/02/07 06:16:14;;;;;;;62.33;4.25;;;;;;;;;;5052743;28;20677;-70
2022/02/07 06:18:49;;;;;;;61.78;3.50;;;;;;;;;;5052599;28;20213;-70
2022/02/07 06:21:18;;;;;;;59.20;3.80;;;;;;;;;;5052964;28;20253;-70
2022/02/07 06:23:50;;;;;;;60.15;3.50;;;;;;;;;;5052395;28;20733;-70
2022/02/07 06:26:19;;;;;;;58.70;3.63;;;;;;;;;;5052699;28;20214;-70
2022/02/07 06:28:57;;;;;;;60.40;3.40;;;;;;;;;;5052416;28;20671;-70
2022/02/07 06:31:27;;;;;;;61.55;4.65;;;;;;;;;;5052089;28;20674;-71
2022/02/07 06:34:00;;;;;;;58.78;3.63;;;;;;;;;;5052310;28;20292;-70
2022/02/07 06:36:29;;;;;;;59.75;3.88;;;;;;;;;;5052722;28;20652;-70
2022/02/07 06:39:03;;;;;;;58.40;3.40;;;;;;;;;;5051507;28;20627;-71
2022/02/07 06:41:32;;;;;;;58.95;3.47;;;;;;;;;;5052533;28;20698;-70
2022/02/07 06:44:01;;;;;;;60.88;4.30;;;;;;;;;;5052122;28;20727;-71
2022/02/07 06:46:31;;;;;;;59.28;3.50;;;;;;;;;;5052052;28;20210;-69
2022/02/07 06:49:04;;;;;;;58.70;3.20;;;;;;;;;;5052003;28;20700;-71
2022/02/07 06:51:36;;;;;;;59.08;3.45;;;;;;;;;;5052170;28;20571;-71
2022/02/07 06:54:08;;;;;;;60.33;3.13;;;;;;;;;;5052002;28;20567;-71
2022/02/07 06:56:39;;;;;;;63.75;3.45;;;;;;;;;;5052252;28;20606;-71
2022/02/07 06:59:15;;;;;;;58.28;3.50;;;;;;;;;;5051672;28;20632;-69
2022/02/07 07:01:45;;;;;;;58.50;3.53;;;;;;;;;;5052038;28;20206;-69
2022/02/07 07:04:20;;;;;;;59.10;3.38;;;;;;;;;;5052168;28;20273;-70
2022/02/07 07:06:58;;;;;;;62.55;3.35;;;;;;;;;;5052191;28;20268;-69
2022/02/07 07:09:27;;;;;;;62.88;3.65;;;;;;;;;;5051703;28;20584;-69
2022/02/07 07:12:03;;;;;;;60.58;3.75;;;;;;;;;;5051865;28;20280;-69
2022/02/07 07:14:41;;;;;;;62.30;3.40;;;;;;;;;;5051157;28;20637;-69
2022/02/07 07:17:10;;;;;;;61.25;4.05;;;;;;;;;;5051545;28;20210;-69
2022/02/07 07:20:01;;;;;;;59.10;3.28;;;;;;;;;;5051830;28;20246;-69
2022/02/07 07:22:35;;;;;;;61.60;3.20;;;;;;;;;;5051273;28;20453;-70
2022/02/07 07:25:15;;;;;;;61.95;3.78;;;;;;;;;;5051085;28;20226;-70
2022/02/07 07:28:01;;;;;;;58.40;3.35;;;;;;;;;;5050337;28;20217;-70
2022/02/07 07:30:35;;;;;;;58.97;3.40;;;;;;;;;;5051476;28;20298;-70
2022/02/07 07:33:07;;;;;;;58.85;3.22;;;;;;;;;;5051536;28;20230;-70
2022/02/07 07:35:39;;;;;;;61.20;3.42;;;;;;;;;;5050800;28;20210;-70
2022/02/07 07:38:19;;;;;;;60.42;3.20;;;;;;;;;;5050993;28;20248;-70
2022/02/07 07:40:48;;;;;;;58.20;3.40;;;;;;;;;;5051658;28;20205;-70
2022/02/07 07:43:23;;;;;;;60.35;3.35;;;;;;;;;;5051516;28;20223;-70
2022/02/07 07:46:02;;;;;;;62.17;3.55;;;;;;;;;;5051625;28;20292;-70
2022/02/07 07:48:33;;;;;;;59.85;4.03;;;;;;;;;;5051256;28;20674;-70
2022/02/07 07:51:08;;;;;;;59.50;3.55;;;;;;;;;;5051293;28;20210;-70
2022/02/07 07:53:49;;;;;;;59.85;3.50;;;;;;;;;;5051291;28;20709;-70
2022/02/07 08:02:01;;;;;;;62.13;3.25;;;;;;;;;;5051492;28;20202;-70
2022/02/07 08:04:33;;;;;;;59.67;3.38;;;;;;;;;;5051184;28;20709;-70
2022/02/07 08:07:19;;;;;;;65.30;4.10;;;;;;;;;;5051233;28;20210;-70
2022/02/07 08:10:07;;;;;;;61.20;3.50;;;;;;;;;;5051320;28;20206;-71
2022/02/07 08:12:47;;;;;;;59.85;3.30;;;;;;;;;;5051187;28;20269;-70
2022/02/07 08:15:18;;;;;;;59.05;3.10;;;;;;;;;;5051276;28;20210;-71
2022/02/07 08:17:50;;;;;;;59.15;3.05;;;;;;;;;;5050889;28;20211;-70
2022/02/07 08:20:25;;;;;;;62.03;2.95;;;;;;;;;;5051229;28;20210;-71
2022/02/07 08:23:00;;;;;;;57.72;2.97;;;;;;;;;;5051147;28;20213;-70
2022/02/07 08:25:32;;;;;;;62.03;3.20;;;;;;;;;;5051127;28;20206;-71
2022/02/07 08:28:04;;;;;;;60.55;4.00;;;;;;;;;;5050829;28;20298;-70
2022/02/07 08:30:37;;;;;;;60.67;3.70;;;;;;;;;;5051162;28;20268;-71
2022/02/07 08:33:09;;;;;;;66.18;3.85;;;;;;;;;;5051069;28;20237;-71
2022/02/07 08:35:43;;;;;;;64.13;4.30;;;;;;;;;;5051068;28;20220;-71
2022/02/07 08:38:15;;;;;;;60.97;3.78;;;;;;;;;;5050802;28;20207;-71
2022/02/07 08:40:45;;;;;;;62.33;3.50;;;;;;;;;;5052295;28;20232;-70
2022/02/07 08:43:17;;;;;;;58.53;3.17;;;;;;;;;;5054499;28;20236;-71
2022/02/07 08:45:46;;;;;;;60.00;3.00;;;;;;;;;;5054675;28;20420;-71
2022/02/07 08:48:15;;;;;;;64.57;3.20;;;;;;;;;;5053272;28;20209;-71
2022/02/07 08:50:51;;;;;;;58.70;2.90;;;;;;;;;;5054442;28;20819;-70
2022/02/07 08:53:31;;;;;;;58.65;3.20;;;;;;;;;;5054267;28;20238;-71
2022/02/07 08:56:03;;;;;;;61.53;2.97;;;;;;;;;;5054067;28;20210;-71
2022/02/07 08:58:36;;;;;;;65.18;3.30;;;;;;;;;;5054147;28;20207;-71
2022/02/07 09:01:15;;;;;;;61.15;2.97;;;;;;;;;;5053262;28;20207;-71
2022/02/07 09:04:08;;;;;;;71.80;3.63;;;;;;;;;;5054248;28;20225;-71
2022/02/07 09:06:54;;;;;;;59.00;3.25;;;;;;;;;;5054093;28;20292;-71
2022/02/07 09:09:27;;;;;;;62.88;2.90;;;;;;;;;;5053386;28;20328;-70
2022/02/07 09:12:00;;;;;;;63.03;3.10;;;;;;;;;;5054299;28;20698;-70
2022/02/07 09:14:42;;;;;;;64.70;3.75;;;;;;;;;;5053943;28;20722;-70
2022/02/07 09:17:21;;;;;;;61.70;3.13;;;;;;;;;;5053637;28;20210;-71
2022/02/07 09:19:53;;;;;;;61.45;3.08;;;;;;;;;;5053485;28;20209;-70
2022/02/07 09:22:24;;;;;;;61.03;3.30;;;;;;;;;;5053837;28;20214;-70
2022/02/07 09:24:55;;;;;;;65.82;3.60;;;;;;;;;;5054318;28;20226;-71
2022/02/07 09:27:32;;;;;;;59.65;3.85;;;;;;;;;;5053250;28;20299;-71
2022/02/07 09:30:06;;;;;;;62.30;2.80;;;;;;;;;;5053708;28;20190;-70
2022/02/07 09:32:38;;;;;;;60.90;3.80;;;;;;;;;;5053311;28;20279;-70
2022/02/07 09:35:07;;;;;;;60.10;2.95;;;;;;;;;;5053203;28;20297;-70
2022/02/07 09:37:39;;;;;;;61.95;3.55;;;;;;;;;;5053176;28;20206;-71
2022/02/07 09:40:21;;;;;;;61.50;3.25;;;;;;;;;;5053579;28;20260;-71
2022/02/07 09:42:57;;;;;;;62.13;3.45;;;;;;;;;;5053369;28;20238;-70
2022/02/07 09:45:35;;;;;;;59.55;2.92;;;;;;;;;;5053682;28;20210;-71
2022/02/07 09:48:09;;;;;;;60.83;3.60;;;;;;;;;;5053184;28;20587;-70
2022/02/07 09:50:39;;;;;;;63.70;3.25;;;;;;;;;;5053523;28;20194;-71
2022/02/07 09:53:14;;;;;;;65.13;3.97;;;;;;;;;;5053733;28;20237;-71
2022/02/07 09:55:48;;;;;;;60.72;3.10;;;;;;;;;;5053403;28;20228;-70
2022/02/07 09:58:17;;;;;;;62.13;3.10;;;;;;;;;;5052952;28;20210;-70
2022/02/07 10:00:58;;;;;;;63.97;3.17;;;;;;;;;;5053448;28;20706;-70
2022/02/07 10:03:32;;;;;;;65.00;3.50;;;;;;;;;;5053280;28;20644;-70
2022/02/07 10:06:14;;;;;;;61.50;3.63;;;;;;;;;;5053523;28;20590;-70
2022/02/07 10:09:00;;;;;;;59.97;3.67;;;;;;;;;;5052572;28;20264;-69
2022/02/07 10:11:46;;;;;;;59.67;3.60;;;;;;;;;;5053022;28;20583;-69
2022/02/07 10:14:28;;;;;;;60.72;3.75;;;;;;;;;;5052134;28;20579;-70
2022/02/07 10:17:10;;;;;;;64.03;4.07;;;;;;;;;;5053244;28;20212;-71
2022/02/07 10:19:57;;;;;;;70.25;3.50;;;;;;;;;;5053032;28;20244;-71
2022/02/07 10:39:57;;;;;;;59.65;3.10;;;;;;;;;;5032197;28;20735;-69
2022/02/07 10:42:56;;;;;;;66.18;3.33;;;;;;;;;;5032070;28;20308;-70
2022/02/07 10:45:27;;;;;;;60.35;2.75;;;;;;;;;;5032030;28;20207;-69
2022/02/07 10:47:57;;;;;;;63.40;3.47;;;;;;;;;;5031545;28;20294;-69
2022/02/07 10:50:30;;;;;;;58.93;3.10;;;;;;;;;;5031868;28;20819;-69
2022/02/07 10:53:03;;;;;;;59.43;3.43;;;;;;;;;;5031862;28;20548;-70
2022/02/07 10:55:33;;;;;;;62.45;3.88;;;;;;;;;;5031727;28;20449;-70
2022/02/07 10:58:03;;;;;;;59.77;3.23;;;;;;;;;;5030739;28;20207;-69
2022/02/07 11:00:39;;;;;;;62.60;3.03;;;;;;;;;;5038926;28;20455;-69
2022/02/07 11:03:11;;;;;;;61.43;2.80;;;;;;;;;;5070884;28;20465;-69
2022/02/07 11:05:41;;;;;;;68.60;3.28;;;;;;;;;;5071337;28;20509;-69
2022/02/07 11:08:25;;;;;;;61.45;3.03;;;;;;;;;;5071152;28;20258;-69
2022/02/07 11:11:28;;;;;;;58.47;2.92;;;;;;;;;;5071658;28;20201;-69
2022/02/07 11:17:09;;;;;;;60.42;3.55;;;;;;;;;;5069352;28;20224;-69
2022/02/07 11:19:51;;;;;;;60.13;3.28;;;;;;;;;;5071835;28;20217;-70
2022/02/07 11:25:26;;;;;;;60.45;3.10;;;;;;;;;;5071106;28;20577;-69
2022/02/07 11:27:58;;;;;;;59.55;4.68;;;;;;;;;;5071391;28;20205;-69
2022/02/07 11:30:47;;;;;;;63.65;3.40;;;;;;;;;;5071218;28;20210;-70
2022/02/07 11:34:01;;;;;;;63.70;3.17;;;;;;;;;;5069287;28;20286;-70
2022/02/07 11:36:40;;;;;;;61.13;3.65;;;;;;;;;;5009463;28;20207;-70
2022/02/07 11:39:14;;;;;;;60.90;2.80;;;;;;;;;;5008442;28;20658;-70
2022/02/07 11:42:08;;;;;;;62.15;3.20;;;;;;;;;;5009728;28;20714;-70
2022/02/07 11:44:52;;;;;;;61.88;3.17;;;;;;;;;;5008746;28;20240;-69
2022/02/07 11:47:26;;;;;;;65.00;3.38;;;;;;;;;;5006990;28;20599;-69
2022/02/07 11:49:59;;;;;;;59.25;3.15;;;;;;;;;;5009005;28;20605;-68
2022/02/07 11:52:37;;;;;;;60.63;3.50;;;;;;;;;;5009451;28;20677;-69
2022/02/07 11:55:13;;;;;;;60.15;2.90;;;;;;;;;;5008753;28;20401;-68
2022/02/07 11:57:43;;;;;;;61.80;3.55;;;;;;;;;;5008794;28;20735;-69
2022/02/07 12:00:15;;;;;;;60.85;3.33;;;;;;;;;;5008410;28;20207;-69
2022/02/07 12:02:51;;;;;;;59.58;3.72;;;;;;;;;;5009138;28;20623;-69
2022/02/07 12:05:20;;;;;;;61.90;3.10;;;;;;;;;;5006580;28;20305;-70
2022/02/07 12:08:07;;;;;;;62.45;3.40;;;;;;;;;;5055720;28;20201;-69
2022/02/07 12:10:41;;;;;;;62.15;3.50;;;;;;;;;;5070876;28;20205;-70
2022/02/07 12:13:31;;;;;;;60.05;3.00;;;;;;;;;;5071227;28;20225;-70
2022/02/07 12:16:06;;;;;;;59.42;3.00;;;;;;;;;;5074818;28;20202;-70
2022/02/07 12:18:35;;;;;;;58.72;3.20;;;;;;;;;;5074401;28;20235;-70
2022/02/07 12:21:28;;;;;;;61.97;3.30;;;;;;;;;;5074320;28;20213;-70
2022/02/07 12:23:59;;;;;;;64.13;4.03;;;;;;;;;;5058666;28;20225;-70
2022/02/07 12:26:39;;;;;;;64.28;3.65;;;;;;;;;;5054632;28;20286;-69
2022/02/07 12:29:25;;;;;;;62.25;3.42;;;;;;;;;;5054161;28;20206;-70
2022/02/07 12:31:58;;;;;;;62.08;4.10;;;;;;;;;;5054007;28;20202;-70
2022/02/07 12:34:40;;;;;;;61.70;3.80;;;;;;;;;;5069618;28;20233;-71
2022/02/07 12:37:09;;;;;;;59.80;3.33;;;;;;;;;;5074521;28;20202;-71
2022/02/07 12:39:42;;;;;;;61.30;3.20;;;;;;;;;;5074949;28;20213;-71
2022/02/07 12:42:20;;;;;;;58.67;3.10;;;;;;;;;;5074678;28;20292;-71
2022/02/07 12:44:54;;;;;;;64.50;3.25;;;;;;;;;;5074207;28;20240;-71
2022/02/07 12:47:26;;;;;;;61.60;3.20;;;;;;;;;;5073766;28;20254;-71
2022/02/07 12:50:09;;;;;;;61.40;3.60;;;;;;;;;;5074074;28;20214;-71
2022/02/07 12:52:39;;;;;;;63.17;3.20;;;;;;;;;;5073878;28;20205;-71
2022/02/07 12:55:18;;;;;;;59.45;2.83;;;;;;;;;;5074476;28;20225;-70
2022/02/07 12:57:48;;;;;;;63.25;3.20;;;;;;;;;;5074096;28;20212;-70
2022/02/07 13:00:18;;;;;;;64.05;3.20;;;;;;;;;;5074373;28;20209;-70
2022/02/07 13:02:48;;;;;;;60.70;3.10;;;;;;;;;;5073862;28;20270;-70
2022/02/07 13:05:18;;;;;;;61.55;3.55;;;;;;;;;;5074284;28;20209;-70
2022/02/07 13:07:48;;;;;;;64.72;3.90;;;;;;;;;;5073642;28;20205;-70
2022/02/07 13:10:21;;;;;;;65.45;3.10;;;;;;;;;;5074235;28;20206;-70
2022/02/07 13:13:07;;;;;;;65.50;3.65;;;;;;;;;;5071810;28;20588;-70
2022/02/07 13:15:41;;;;;;;62.03;3.10;;;;;;;;;;5073861;28;20225;-70
2022/02/07 13:18:16;;;;;;;67.72;3.55;;;;;;;;;;5073466;28;20240;-71
2022/02/07 13:20:46;;;;;;;58.15;3.00;;;;;;;;;;5073987;28;20216;-71
2022/02/07 13:23:19;;;;;;;58.67;2.65;;;;;;;;;;5073688;28;20230;-70
2022/02/07 13:25:53;;;;;;;63.30;3.25;;;;;;;;;;5072717;28;20399;-71
2022/02/07 13:28:24;;;;;;;60.60;3.00;;;;;;;;;;5073314;28;20252;-71
2022/02/07 13:30:57;;;;;;;64.57;3.65;;;;;;;;;;5074102;28;20206;-70
2022/02/07 13:33:27;;;;;;;63.92;3.60;;;;;;;;;;5073501;28;20230;-70
2022/02/07 13:35:59;;;;;;;62.15;3.88;;;;;;;;;;5073552;28;20422;-70
2022/02/07 13:38:28;;;;;;;61.78;3.80;;;;;;;;;;5073123;28;20223;-70
2022/02/07 13:41:11;;;;;;;62.67;3.58;;;;;;;;;;5073670;28;20205;-70
2022/02/07 13:43:40;;;;;;;58.90;3.60;;;;;;;;;;5073169;28;20316;-71
2022/02/07 13:46:15;;;;;;;63.72;4.70;;;;;;;;;;5073615;28;20205;-70
2022/02/07 13:48:45;;;;;;;63.65;3.70;;;;;;;;;;5071105;28;20287;-69
2022/02/07 13:51:17;;;;;;;63.05;3.50;;;;;;;;;;5067450;28;20205;-70
2022/02/07 13:53:47;;;;;;;60.90;3.78;;;;;;;;;;5072733;28;20228;-70
2022/02/07 13:56:20;;;;;;;58.70;3.20;;;;;;;;;;5073031;28;20205;-70
2022/02/07 13:59:02;;;;;;;61.58;3.55;;;;;;;;;;5072976;28;20194;-71
2022/02/07 14:01:39;;;;;;;63.60;3.60;;;;;;;;;;5073401;28;20670;-69
2022/02/07 14:04:17;;;;;;;61.75;3.05;;;;;;;;;;5073263;28;20222;-70
2022/02/07 14:07:05;;;;;;;60.50;3.85;;;;;;;;;;5078520;28;20193;-69
2022/02/07 14:09:38;;;;;;;60.30;4.05;;;;;;;;;;5093056;28;20205;-69
2022/02/07 14:12:10;;;;;;;59.38;3.45;;;;;;;;;;5093350;28;20289;-69
2022/02/07 14:14:40;;;;;;;60.85;3.40;;;;;;;;;;5090416;28;20289;-69
2022/02/07 14:17:17;;;;;;;62.13;4.18;;;;;;;;;;5093130;28;20210;-69
2022/02/07 14:19:58;;;;;;;58.50;3.03;;;;;;;;;;5089747;28;20509;-69
2022/02/07 14:22:35;;;;;;;59.22;3.65;;;;;;;;;;5077806;28;20224;-69
2022/02/07 14:25:08;;;;;;;62.83;3.40;;;;;;;;;;5072549;28;20232;-69
2022/02/07 14:27:40;;;;;;;59.40;3.65;;;;;;;;;;5072364;28;20582;-69
2022/02/07 14:30:15;;;;;;;63.05;4.07;;;;;;;;;;5072182;28;20300;-69
2022/02/07 14:32:45;;;;;;;62.75;3.65;;;;;;;;;;5072082;28;20212;-68
2022/02/07 14:35:14;;;;;;;63.80;3.38;;;;;;;;;;5072249;28;20225;-69
2022/02/07 14:37:48;;;;;;;61.83;3.42;;;;;;;;;;5071016;28;20212;-69
2022/02/07 14:40:18;;;;;;;67.45;2.90;;;;;;;;;;5072040;28;20213;-70
2022/02/07 14:42:49;;;;;;;61.35;3.58;;;;;;;;;;5072210;28;20209;-69
2022/02/07 14:45:26;;;;;;;65.30;3.60;;;;;;;;;;5072419;28;20205;-69
2022/02/07 14:48:01;;;;;;;62.38;3.60;;;;;;;;;;5072157;28;20205;-70
2022/02/07 14:50:33;;;;;;;62.47;3.60;;;;;;;;;;5071700;28;20275;-70
2022/02/07 14:53:06;;;;;;;62.03;3.25;;;;;;;;;;5068887;28;20216;-70
2022/02/07 14:55:37;;;;;;;62.58;3.90;;;;;;;;;;5072228;28;20225;-70
2022/02/07 14:58:09;;;;;;;59.95;3.35;;;;;;;;;;5070949;28;20251;-69
2022/02/07 15:00:41;;;;;;;58.60;3.13;;;;;;;;;;5071724;28;20206;-70
2022/02/07 15:03:19;;;;;;;59.70;3.30;;;;;;;;;;5071673;28;20474;-69
2022/02/07 15:05:55;;;;;;;61.05;3.25;;;;;;;;;;5072212;28;20452;-71
2022/02/07 15:08:26;;;;;;;62.17;4.00;;;;;;;;;;5071973;28;20301;-70
2022/02/07 15:11:04;;;;;;;59.97;3.37;;;;;;;;;;5071837;28;20452;-68
2022/02/07 15:13:41;;;;;;;59.37;3.50;;;;;;;;;;5070945;28;20476;-69
2022/02/07 15:16:10;;;;;;;58.60;3.33;;;;;;;;;;5071689;28;20479;-69
2022/02/07 15:18:42;;;;;;;63.80;3.53;;;;;;;;;;5071337;28;20444;-71
2022/02/07 15:21:12;;;;;;;62.50;3.70;;;;;;;;;;5071642;28;20894;-70
2022/02/07 15:23:42;;;;;;;59.47;3.20;;;;;;;;;;5068436;28;20472;-71
2022/02/07 15:26:14;;;;;;;75.17;3.87;;;;;;;;;;5071498;28;20448;-71
2022/02/07 15:28:48;;;;;;;60.77;3.37;;;;;;;;;;5070820;28;20456;-71
2022/02/07 15:31:23;;;;;;;59.17;3.30;;;;;;;;;;5071471;28;20935;-71
2022/02/07 15:33:53;;;;;;;59.77;3.30;;;;;;;;;;5070791;28;20463;-71
2022/02/07 15:36:26;;;;;;;60.40;3.80;;;;;;;;;;5071125;28;20494;-71
2022/02/07 15:38:56;;;;;;;64.43;3.90;;;;;;;;;;5070842;28;20534;-70
2022/02/07 15:41:25;;;;;;;59.00;3.15;;;;;;;;;;5071473;28;20455;-71
2022/02/07 15:44:01;;;;;;;60.40;3.20;;;;;;;;;;5070852;28;20241;-71
2022/02/07 15:46:34;;;;;;;64.30;3.40;;;;;;;;;;5071714;28;20448;-71
2022/02/07 15:49:04;;;;;;;61.33;4.30;;;;;;;;;;5071583;28;20787;-71
2022/02/07 15:51:36;;;;;;;64.93;4.13;;;;;;;;;;5075394;28;20205;-71
2022/02/07 15:54:06;;;;;;;62.20;3.72;;;;;;;;;;5075213;28;20225;-71
2022/02/07 15:56:44;;;;;;;63.20;3.60;;;;;;;;;;5054083;28;20228;-71
2022/02/07 15:59:21;;;;;;;62.80;3.72;;;;;;;;;;5054687;28;20209;-71
2022/02/07 16:01:53;;;;;;;65.93;4.13;;;;;;;;;;5055451;28;20686;-71
2022/02/07 16:04:24;;;;;;;65.50;4.50;;;;;;;;;;5054984;28;20772;-71
2022/02/07 16:06:54;;;;;;;61.95;3.90;;;;;;;;;;5055383;28;20678;-71
2022/02/07 16:09:23;;;;;;;62.10;3.60;;;;;;;;;;5055066;28;20666;-71
2022/02/07 16:11:57;;;;;;;61.67;3.63;;;;;;;;;;5054467;28;20686;-70
2022/02/07 16:14:29;;;;;;;63.95;4.28;;;;;;;;;;5055167;28;20644;-71
2022/02/07 16:16:59;;;;;;;62.28;4.18;;;;;;;;;;5055033;28;20214;-71
2022/02/07 16:19:31;;;;;;;60.85;3.83;;;;;;;;;;5054575;28;20687;-71
2022/02/07 16:22:00;;;;;;;60.85;4.03;;;;;;;;;;5054458;28;20679;-71
2022/02/07 16:24:30;;;;;;;60.33;3.78;;;;;;;;;;5054858;28;20727;-71
2022/02/07 16:27:04;;;;;;;62.05;4.18;;;;;;;;;;5052902;28;20690;-71
2022/02/07 16:29:35;;;;;;;62.58;4.25;;;;;;;;;;5054875;28;20712;-71
2022/02/07 16:32:08;;;;;;;63.50;4.38;;;;;;;;;;5054633;28;20722;-71
2022/02/07 16:34:40;;;;;;;59.75;3.75;;;;;;;;;;5054521;28;20612;-71
2022/02/07 16:37:09;;;;;;;61.97;3.50;;;;;;;;;;5054162;28;20589;-71
2022/02/07 16:39:43;;;;;;;67.72;3.85;;;;;;;;;;5054529;28;20590;-71